sensor_id;sensor_type;location;lat;lon;timestamp;temperature;humidity
22838;DHT22;11585;51.450;-0.240;2023-04-06T00:00:25;11.70;99.90
22838;DHT22;11585;51.450;-0.240;2023-04-06T00:02:51;11.70;99.90
22838;DHT22;11585;51.450;-0.240;2023-04-06T00:05:21;11.70;99.90
22838;DHT22;11585;51.450;-0.240;2023-04-06T00:07:48;11.60;99.90
22838;DHT22;11585;51.450;-0.240;2023-04-06T00:10:15;11.60;99.90
22838;DHT22;11585;51.450;-0.240;2023-04-06T00:12:41;11.70;99.90
22838;DHT22;11585;51.450;-0.240;2023-04-06T00:15:26;11.70;99.90
22838;DHT22;11585;51.450;-0.240;2023-04-06T00:17:52;11.60;99.90
22838;DHT22;11585;51.450;-0.240;2023-04-06T00:20:18;11.60;99.90
22838;DHT22;11585;51.450;-0.240;2023-04-06T00:22:44;11.60;99.90
22838;DHT22;11585;51.450;-0.240;2023-04-06T00:25:11;11.60;99.90
22838;DHT22;11585;51.450;-0.240;2023-04-06T00:27:37;11.60;99.90
22838;DHT22;11585;51.450;-0.240;2023-04-06T00:30:07;11.60;99.90
22838;DHT22;11585;51.450;-0.240;2023-04-06T00:32:33;11.60;99.90
22838;DHT22;11585;51.450;-0.240;2023-04-06T00:35:02;11.60;99.90
22838;DHT22;11585;51.450;-0.240;2023-04-06T00:37:28;11.60;99.90
22838;DHT22;11585;51.450;-0.240;2023-04-06T00:39:54;11.60;99.90
22838;DHT22;11585;51.450;-0.240;2023-04-06T00:42:21;11.60;99.90
22838;DHT22;11585;51.450;-0.240;2023-04-06T00:44:58;11.60;99.90
22838;DHT22;11585;51.450;-0.240;2023-04-06T00:47:24;11.60;99.90
22838;DHT22;11585;51.450;-0.240;2023-04-06T00:49:53;11.50;99.90
22838;DHT22;11585;51.450;-0.240;2023-04-06T00:52:20;11.60;99.90
22838;DHT22;11585;51.450;-0.240;2023-04-06T00:58:08;11.60;99.90
22838;DHT22;11585;51.450;-0.240;2023-04-06T01:00:33;11.50;99.90
22838;DHT22;11585;51.450;-0.240;2023-04-06T01:02:59;11.50;99.90
22838;DHT22;11585;51.450;-0.240;2023-04-06T01:05:27;11.50;99.90
22838;DHT22;11585;51.450;-0.240;2023-04-06T01:07:52;11.50;99.90
22838;DHT22;11585;51.450;-0.240;2023-04-06T01:10:25;11.60;99.90
22838;DHT22;11585;51.450;-0.240;2023-04-06T01:12:51;11.50;99.90
22838;DHT22;11585;51.450;-0.240;2023-04-06T01:15:23;11.50;99.90
22838;DHT22;11585;51.450;-0.240;2023-04-06T01:17:49;11.50;99.90
22838;DHT22;11585;51.450;-0.240;2023-04-06T01:20:15;11.50;99.90
22838;DHT22;11585;51.450;-0.240;2023-04-06T01:22:40;11.50;99.90
22838;DHT22;11585;51.450;-0.240;2023-04-06T01:25:27;11.50;99.90
22838;DHT22;11585;51.450;-0.240;2023-04-06T01:27:53;11.50;99.90
22838;DHT22;11585;51.450;-0.240;2023-04-06T01:30:18;11.50;99.90
22838;DHT22;11585;51.450;-0.240;2023-04-06T01:32:45;11.50;99.90
22838;DHT22;11585;51.450;-0.240;2023-04-06T01:35:11;11.50;99.90
22838;DHT22;11585;51.450;-0.240;2023-04-06T01:37:36;11.40;99.90
22838;DHT22;11585;51.450;-0.240;2023-04-06T01:40:02;11.50;99.90
22838;DHT22;11585;51.450;-0.240;2023-04-06T01:42:28;11.40;99.90
22838;DHT22;11585;51.450;-0.240;2023-04-06T01:44:56;11.40;99.90
22838;DHT22;11585;51.450;-0.240;2023-04-06T01:47:22;11.40;99.90
22838;DHT22;11585;51.450;-0.240;2023-04-06T01:49:47;11.40;99.90
22838;DHT22;11585;51.450;-0.240;2023-04-06T01:52:13;11.40;99.90
22838;DHT22;11585;51.450;-0.240;2023-04-06T01:58:01;11.40;99.90
22838;DHT22;11585;51.450;-0.240;2023-04-06T02:00:26;11.40;99.90
22838;DHT22;11585;51.450;-0.240;2023-04-06T02:02:52;11.40;99.90
22838;DHT22;11585;51.450;-0.240;2023-04-06T02:05:21;11.40;99.90
22838;DHT22;11585;51.450;-0.240;2023-04-06T02:07:46;11.40;99.90
22838;DHT22;11585;51.450;-0.240;2023-04-06T02:10:13;11.40;99.90
22838;DHT22;11585;51.450;-0.240;2023-04-06T02:12:39;11.40;99.90
22838;DHT22;11585;51.450;-0.240;2023-04-06T02:15:09;11.40;99.90
22838;DHT22;11585;51.450;-0.240;2023-04-06T02:17:35;11.40;99.90
22838;DHT22;11585;51.450;-0.240;2023-04-06T02:20:00;11.40;99.90
22838;DHT22;11585;51.450;-0.240;2023-04-06T02:22:26;11.40;99.90
22838;DHT22;11585;51.450;-0.240;2023-04-06T02:27:56;11.40;99.90
22838;DHT22;11585;51.450;-0.240;2023-04-06T02:30:22;11.30;99.90
22838;DHT22;11585;51.450;-0.240;2023-04-06T02:32:47;11.30;99.90
22838;DHT22;11585;51.450;-0.240;2023-04-06T02:35:33;11.30;99.90
22838;DHT22;11585;51.450;-0.240;2023-04-06T02:38:01;11.30;99.90
22838;DHT22;11585;51.450;-0.240;2023-04-06T02:40:27;11.30;99.90
22838;DHT22;11585;51.450;-0.240;2023-04-06T02:42:52;11.30;99.90
22838;DHT22;11585;51.450;-0.240;2023-04-06T02:45:20;11.30;99.90
22838;DHT22;11585;51.450;-0.240;2023-04-06T02:47:46;11.30;99.90
22838;DHT22;11585;51.450;-0.240;2023-04-06T02:50:11;11.40;99.90
22838;DHT22;11585;51.450;-0.240;2023-04-06T02:52:37;11.30;99.90
22838;DHT22;11585;51.450;-0.240;2023-04-06T02:55:04;11.30;99.90
22838;DHT22;11585;51.450;-0.240;2023-04-06T02:57:32;11.30;99.90
22838;DHT22;11585;51.450;-0.240;2023-04-06T02:59:57;11.30;99.90
22838;DHT22;11585;51.450;-0.240;2023-04-06T03:02:23;11.30;99.90
22838;DHT22;11585;51.450;-0.240;2023-04-06T03:05:10;11.30;99.90
22838;DHT22;11585;51.450;-0.240;2023-04-06T03:07:35;11.30;99.90
22838;DHT22;11585;51.450;-0.240;2023-04-06T03:10:01;11.20;99.90
22838;DHT22;11585;51.450;-0.240;2023-04-06T03:12:26;11.30;99.90
22838;DHT22;11585;51.450;-0.240;2023-04-06T03:17:58;11.60;99.90
22838;DHT22;11585;51.450;-0.240;2023-04-06T03:20:23;11.30;99.90
22838;DHT22;11585;51.450;-0.240;2023-04-06T03:22:49;11.30;99.90
22838;DHT22;11585;51.450;-0.240;2023-04-06T03:25:33;11.30;99.90
22838;DHT22;11585;51.450;-0.240;2023-04-06T03:27:59;11.30;99.90
22838;DHT22;11585;51.450;-0.240;2023-04-06T03:30:25;11.30;99.90
22838;DHT22;11585;51.450;-0.240;2023-04-06T03:32:51;11.30;99.90
22838;DHT22;11585;51.450;-0.240;2023-04-06T03:35:36;11.30;99.90
22838;DHT22;11585;51.450;-0.240;2023-04-06T03:38:02;11.30;99.90
22838;DHT22;11585;51.450;-0.240;2023-04-06T03:40:28;11.20;99.90
22838;DHT22;11585;51.450;-0.240;2023-04-06T03:42:54;11.30;99.90
22838;DHT22;11585;51.450;-0.240;2023-04-06T03:55:26;11.30;99.90
22838;DHT22;11585;51.450;-0.240;2023-04-06T03:57:51;11.30;99.90
22838;DHT22;11585;51.450;-0.240;2023-04-06T04:00:17;11.30;99.90
22838;DHT22;11585;51.450;-0.240;2023-04-06T04:02:43;11.30;99.90
22838;DHT22;11585;51.450;-0.240;2023-04-06T04:08:30;11.30;99.90
22838;DHT22;11585;51.450;-0.240;2023-04-06T04:10:56;11.20;99.90
22838;DHT22;11585;51.450;-0.240;2023-04-06T04:13:21;11.30;99.90
22838;DHT22;11585;51.450;-0.240;2023-04-06T04:19:09;11.30;99.90
22838;DHT22;11585;51.450;-0.240;2023-04-06T04:21:45;11.30;99.90
22838;DHT22;11585;51.450;-0.240;2023-04-06T04:24:11;11.30;99.90
22838;DHT22;11585;51.450;-0.240;2023-04-06T04:26:37;11.30;99.90
22838;DHT22;11585;51.450;-0.240;2023-04-06T04:29:03;11.30;99.90
22838;DHT22;11585;51.450;-0.240;2023-04-06T04:31:29;11.30;99.90
22838;DHT22;11585;51.450;-0.240;2023-04-06T04:33:55;11.30;99.90
22838;DHT22;11585;51.450;-0.240;2023-04-06T04:36:40;11.30;99.90
22838;DHT22;11585;51.450;-0.240;2023-04-06T04:39:07;11.30;99.90
22838;DHT22;11585;51.450;-0.240;2023-04-06T04:41:33;11.30;99.90
22838;DHT22;11585;51.450;-0.240;2023-04-06T04:43:58;11.30;99.90
22838;DHT22;11585;51.450;-0.240;2023-04-06T04:49:46;11.30;99.90
22838;DHT22;11585;51.450;-0.240;2023-04-06T04:52:12;11.30;99.90
22838;DHT22;11585;51.450;-0.240;2023-04-06T04:58:00;11.30;99.90
22838;DHT22;11585;51.450;-0.240;2023-04-06T05:00:25;11.30;99.90
22838;DHT22;11585;51.450;-0.240;2023-04-06T05:02:51;11.30;99.90
22838;DHT22;11585;51.450;-0.240;2023-04-06T05:11:43;11.30;99.90
22838;DHT22;11585;51.450;-0.240;2023-04-06T05:14:09;11.30;99.90
22838;DHT22;11585;51.450;-0.240;2023-04-06T05:16:35;11.30;99.90
22838;DHT22;11585;51.450;-0.240;2023-04-06T05:19:00;11.30;99.90
22838;DHT22;11585;51.450;-0.240;2023-04-06T05:21:26;11.30;99.90
22838;DHT22;11585;51.450;-0.240;2023-04-06T05:23:53;11.30;99.90
22838;DHT22;11585;51.450;-0.240;2023-04-06T05:26:19;11.30;99.90
22838;DHT22;11585;51.450;-0.240;2023-04-06T05:28:45;11.30;99.90
22838;DHT22;11585;51.450;-0.240;2023-04-06T05:31:11;11.30;99.90
22838;DHT22;11585;51.450;-0.240;2023-04-06T05:33:36;11.30;99.90
22838;DHT22;11585;51.450;-0.240;2023-04-06T05:39:24;11.30;99.90
22838;DHT22;11585;51.450;-0.240;2023-04-06T05:41:50;11.30;99.90
22838;DHT22;11585;51.450;-0.240;2023-04-06T05:44:15;11.30;99.90
22838;DHT22;11585;51.450;-0.240;2023-04-06T05:46:41;11.30;99.90
22838;DHT22;11585;51.450;-0.240;2023-04-06T05:49:07;11.40;99.90
22838;DHT22;11585;51.450;-0.240;2023-04-06T05:51:32;11.30;99.90
22838;DHT22;11585;51.450;-0.240;2023-04-06T05:53:58;11.40;99.90
22838;DHT22;11585;51.450;-0.240;2023-04-06T05:59:29;11.40;99.90
22838;DHT22;11585;51.450;-0.240;2023-04-06T06:01:55;11.30;99.90
22838;DHT22;11585;51.450;-0.240;2023-04-06T06:07:26;11.40;99.90
22838;DHT22;11585;51.450;-0.240;2023-04-06T06:09:51;11.40;99.90
22838;DHT22;11585;51.450;-0.240;2023-04-06T06:12:17;11.40;99.90
22838;DHT22;11585;51.450;-0.240;2023-04-06T06:14:45;11.40;99.90
22838;DHT22;11585;51.450;-0.240;2023-04-06T06:17:10;11.40;99.90
22838;DHT22;11585;51.450;-0.240;2023-04-06T06:19:36;11.40;99.90
22838;DHT22;11585;51.450;-0.240;2023-04-06T06:22:01;11.50;99.90
22838;DHT22;11585;51.450;-0.240;2023-04-06T06:27:50;11.40;99.90
22838;DHT22;11585;51.450;-0.240;2023-04-06T06:30:16;11.40;99.90
22838;DHT22;11585;51.450;-0.240;2023-04-06T06:32:41;11.40;99.90
22838;DHT22;11585;51.450;-0.240;2023-04-06T06:38:29;11.40;99.90
22838;DHT22;11585;51.450;-0.240;2023-04-06T06:40:55;11.40;99.90
22838;DHT22;11585;51.450;-0.240;2023-04-06T06:43:20;11.40;99.90
22838;DHT22;11585;51.450;-0.240;2023-04-06T06:52:12;11.50;99.90
22838;DHT22;11585;51.450;-0.240;2023-04-06T06:54:40;11.50;99.90
22838;DHT22;11585;51.450;-0.240;2023-04-06T06:57:06;11.50;99.90
22838;DHT22;11585;51.450;-0.240;2023-04-06T06:59:31;11.40;99.90
22838;DHT22;11585;51.450;-0.240;2023-04-06T07:01:57;11.50;99.90
22838;DHT22;11585;51.450;-0.240;2023-04-06T07:04:25;11.50;99.90
22838;DHT22;11585;51.450;-0.240;2023-04-06T07:06:50;11.50;99.90
22838;DHT22;11585;51.450;-0.240;2023-04-06T07:09:18;11.50;99.90
22838;DHT22;11585;51.450;-0.240;2023-04-06T07:11:43;11.50;99.90
22838;DHT22;11585;51.450;-0.240;2023-04-06T07:14:09;11.50;99.90
22838;DHT22;11585;51.450;-0.240;2023-04-06T07:19:58;11.60;99.90
22838;DHT22;11585;51.450;-0.240;2023-04-06T07:25:46;11.60;99.90
22838;DHT22;11585;51.450;-0.240;2023-04-06T07:28:11;11.60;99.90
22838;DHT22;11585;51.450;-0.240;2023-04-06T07:30:37;11.60;99.90
22838;DHT22;11585;51.450;-0.240;2023-04-06T07:33:03;11.60;99.90
22838;DHT22;11585;51.450;-0.240;2023-04-06T07:38:51;11.60;99.90
22838;DHT22;11585;51.450;-0.240;2023-04-06T07:41:16;11.60;99.90
22838;DHT22;11585;51.450;-0.240;2023-04-06T07:43:44;11.70;99.90
22838;DHT22;11585;51.450;-0.240;2023-04-06T07:49:54;11.70;99.90
22838;DHT22;11585;51.450;-0.240;2023-04-06T07:52:21;11.70;99.90
22838;DHT22;11585;51.450;-0.240;2023-04-06T07:54:48;11.60;99.90
22838;DHT22;11585;51.450;-0.240;2023-04-06T07:57:15;11.70;99.90
22838;DHT22;11585;51.450;-0.240;2023-04-06T07:59:40;11.70;99.90
22838;DHT22;11585;51.450;-0.240;2023-04-06T08:02:06;11.70;99.90
22838;DHT22;11585;51.450;-0.240;2023-04-06T08:07:35;11.70;99.90
22838;DHT22;11585;51.450;-0.240;2023-04-06T08:10:01;11.70;99.90
22838;DHT22;11585;51.450;-0.240;2023-04-06T08:12:27;11.70;99.90
22838;DHT22;11585;51.450;-0.240;2023-04-06T08:15:12;11.70;99.90
22838;DHT22;11585;51.450;-0.240;2023-04-06T08:17:38;11.70;99.90
22838;DHT22;11585;51.450;-0.240;2023-04-06T08:20:03;11.70;99.90
22838;DHT22;11585;51.450;-0.240;2023-04-06T08:22:32;11.70;99.90
22838;DHT22;11585;51.450;-0.240;2023-04-06T08:28:20;11.70;99.90
22838;DHT22;11585;51.450;-0.240;2023-04-06T08:30:46;11.60;99.90
22838;DHT22;11585;51.450;-0.240;2023-04-06T08:33:12;11.70;99.90
22838;DHT22;11585;51.450;-0.240;2023-04-06T08:39:00;11.70;99.90
22838;DHT22;11585;51.450;-0.240;2023-04-06T08:41:27;11.70;99.90
22838;DHT22;11585;51.450;-0.240;2023-04-06T08:43:57;11.70;99.90
22838;DHT22;11585;51.450;-0.240;2023-04-06T08:49:45;11.70;99.90
22838;DHT22;11585;51.450;-0.240;2023-04-06T08:52:12;11.70;99.90
22838;DHT22;11585;51.450;-0.240;2023-04-06T08:58:07;11.70;99.90
22838;DHT22;11585;51.450;-0.240;2023-04-06T09:00:38;11.70;99.90
22838;DHT22;11585;51.450;-0.240;2023-04-06T09:03:05;11.70;99.90
22838;DHT22;11585;51.450;-0.240;2023-04-06T09:05:31;11.70;99.90
22838;DHT22;11585;51.450;-0.240;2023-04-06T09:07:57;11.70;99.90
22838;DHT22;11585;51.450;-0.240;2023-04-06T09:10:23;11.70;99.90
22838;DHT22;11585;51.450;-0.240;2023-04-06T09:12:50;11.60;99.90
22838;DHT22;11585;51.450;-0.240;2023-04-06T09:15:21;11.70;99.90
22838;DHT22;11585;51.450;-0.240;2023-04-06T09:17:47;11.70;99.90
22838;DHT22;11585;51.450;-0.240;2023-04-06T09:20:13;11.70;99.90
22838;DHT22;11585;51.450;-0.240;2023-04-06T09:22:39;11.70;99.90
22838;DHT22;11585;51.450;-0.240;2023-04-06T09:25:09;11.80;99.90
22838;DHT22;11585;51.450;-0.240;2023-04-06T09:27:37;11.70;99.90
22838;DHT22;11585;51.450;-0.240;2023-04-06T09:30:10;11.80;99.90
22838;DHT22;11585;51.450;-0.240;2023-04-06T09:32:49;11.80;99.90
22838;DHT22;11585;51.450;-0.240;2023-04-06T09:38:38;11.80;99.90
22838;DHT22;11585;51.450;-0.240;2023-04-06T09:41:03;11.80;99.90
22838;DHT22;11585;51.450;-0.240;2023-04-06T09:43:29;11.80;99.90
22838;DHT22;11585;51.450;-0.240;2023-04-06T09:46:00;11.80;99.90
22838;DHT22;11585;51.450;-0.240;2023-04-06T09:48:26;11.80;99.90
22838;DHT22;11585;51.450;-0.240;2023-04-06T09:50:59;11.80;99.90
22838;DHT22;11585;51.450;-0.240;2023-04-06T09:53:28;11.80;99.90
22838;DHT22;11585;51.450;-0.240;2023-04-06T09:56:17;11.90;99.90
22838;DHT22;11585;51.450;-0.240;2023-04-06T09:58:46;11.90;99.90
22838;DHT22;11585;51.450;-0.240;2023-04-06T10:01:16;11.90;99.90
22838;DHT22;11585;51.450;-0.240;2023-04-06T10:04:00;11.80;99.90
22838;DHT22;11585;51.450;-0.240;2023-04-06T10:06:31;11.90;99.90
22838;DHT22;11585;51.450;-0.240;2023-04-06T10:08:59;11.90;99.90
22838;DHT22;11585;51.450;-0.240;2023-04-06T10:11:27;11.90;99.90
22838;DHT22;11585;51.450;-0.240;2023-04-06T10:13:55;11.90;99.90
22838;DHT22;11585;51.450;-0.240;2023-04-06T10:19:52;12.00;99.90
22838;DHT22;11585;51.450;-0.240;2023-04-06T10:22:26;12.00;99.90
22838;DHT22;11585;51.450;-0.240;2023-04-06T10:24:54;12.00;99.90
22838;DHT22;11585;51.450;-0.240;2023-04-06T10:27:30;12.00;99.90
22838;DHT22;11585;51.450;-0.240;2023-04-06T10:30:04;13.00;99.90
22838;DHT22;11585;51.450;-0.240;2023-04-06T10:32:35;12.10;99.90
22838;DHT22;11585;51.450;-0.240;2023-04-06T10:38:34;12.10;99.90
22838;DHT22;11585;51.450;-0.240;2023-04-06T10:41:07;12.10;99.90
22838;DHT22;11585;51.450;-0.240;2023-04-06T10:43:34;12.10;99.90
22838;DHT22;11585;51.450;-0.240;2023-04-06T10:49:25;12.10;99.90
22838;DHT22;11585;51.450;-0.240;2023-04-06T10:51:55;12.10;99.90
22838;DHT22;11585;51.450;-0.240;2023-04-06T10:54:24;12.20;99.90
22838;DHT22;11585;51.450;-0.240;2023-04-06T10:56:50;12.20;99.90
22838;DHT22;11585;51.450;-0.240;2023-04-06T10:59:20;12.20;99.90
22838;DHT22;11585;51.450;-0.240;2023-04-06T11:01:46;12.20;99.90
22838;DHT22;11585;51.450;-0.240;2023-04-06T11:04:19;12.30;99.90
22838;DHT22;11585;51.450;-0.240;2023-04-06T11:06:49;12.30;99.90
22838;DHT22;11585;51.450;-0.240;2023-04-06T11:09:28;12.50;99.90
22838;DHT22;11585;51.450;-0.240;2023-04-06T11:11:55;12.40;99.90
22838;DHT22;11585;51.450;-0.240;2023-04-06T11:14:41;12.40;99.90
22838;DHT22;11585;51.450;-0.240;2023-04-06T11:17:28;12.40;99.90
22838;DHT22;11585;51.450;-0.240;2023-04-06T11:19:57;12.40;99.90
22838;DHT22;11585;51.450;-0.240;2023-04-06T11:22:23;12.40;99.90
22838;DHT22;11585;51.450;-0.240;2023-04-06T11:27:39;12.50;99.90
22838;DHT22;11585;51.450;-0.240;2023-04-06T11:30:05;12.50;99.90
22838;DHT22;11585;51.450;-0.240;2023-04-06T11:32:40;12.50;99.90
22838;DHT22;11585;51.450;-0.240;2023-04-06T11:35:10;12.50;99.90
22838;DHT22;11585;51.450;-0.240;2023-04-06T11:37:36;12.60;99.90
22838;DHT22;11585;51.450;-0.240;2023-04-06T11:40:02;12.50;99.90
22838;DHT22;11585;51.450;-0.240;2023-04-06T11:42:29;12.60;99.90
22838;DHT22;11585;51.450;-0.240;2023-04-06T11:44:56;12.60;99.90
22838;DHT22;11585;51.450;-0.240;2023-04-06T11:47:36;12.60;99.90
22838;DHT22;11585;51.450;-0.240;2023-04-06T11:50:10;12.60;99.90
22838;DHT22;11585;51.450;-0.240;2023-04-06T11:52:37;12.60;99.90
22838;DHT22;11585;51.450;-0.240;2023-04-06T11:55:17;12.70;99.90
22838;DHT22;11585;51.450;-0.240;2023-04-06T11:57:44;12.70;99.90
22838;DHT22;11585;51.450;-0.240;2023-04-06T12:00:11;12.70;99.90
22838;DHT22;11585;51.450;-0.240;2023-04-06T12:02:39;12.70;99.90
22838;DHT22;11585;51.450;-0.240;2023-04-06T12:05:08;12.70;99.90
22838;DHT22;11585;51.450;-0.240;2023-04-06T12:07:33;12.60;99.90
22838;DHT22;11585;51.450;-0.240;2023-04-06T12:10:01;12.70;99.90
22838;DHT22;11585;51.450;-0.240;2023-04-06T12:12:27;12.70;99.90
22838;DHT22;11585;51.450;-0.240;2023-04-06T12:17:57;12.70;99.90
22838;DHT22;11585;51.450;-0.240;2023-04-06T12:20:22;12.70;99.90
22838;DHT22;11585;51.450;-0.240;2023-04-06T12:22:48;12.70;99.90
22838;DHT22;11585;51.450;-0.240;2023-04-06T12:28:22;12.80;99.90
22838;DHT22;11585;51.450;-0.240;2023-04-06T12:30:52;12.80;99.90
22838;DHT22;11585;51.450;-0.240;2023-04-06T12:33:17;12.80;99.90
22838;DHT22;11585;51.450;-0.240;2023-04-06T12:35:44;12.80;99.90
22838;DHT22;11585;51.450;-0.240;2023-04-06T12:38:10;12.80;99.90
22838;DHT22;11585;51.450;-0.240;2023-04-06T12:40:37;12.90;99.90
22838;DHT22;11585;51.450;-0.240;2023-04-06T12:43:06;12.90;99.90
22838;DHT22;11585;51.450;-0.240;2023-04-06T12:45:54;12.90;99.90
22838;DHT22;11585;51.450;-0.240;2023-04-06T12:48:19;13.00;99.90
22838;DHT22;11585;51.450;-0.240;2023-04-06T12:51:03;13.00;99.90
22838;DHT22;11585;51.450;-0.240;2023-04-06T12:53:29;13.00;99.90
22838;DHT22;11585;51.450;-0.240;2023-04-06T12:59:17;13.10;99.90
22838;DHT22;11585;51.450;-0.240;2023-04-06T13:01:43;13.10;99.90
22838;DHT22;11585;51.450;-0.240;2023-04-06T13:04:09;13.20;99.90
22838;DHT22;11585;51.450;-0.240;2023-04-06T13:06:35;13.10;99.90
22838;DHT22;11585;51.450;-0.240;2023-04-06T13:09:00;13.20;99.90
22838;DHT22;11585;51.450;-0.240;2023-04-06T13:11:26;13.20;99.90
22838;DHT22;11585;51.450;-0.240;2023-04-06T13:13:52;13.20;99.90
22838;DHT22;11585;51.450;-0.240;2023-04-06T13:19:39;13.30;99.90
22838;DHT22;11585;51.450;-0.240;2023-04-06T13:22:05;13.20;99.90
22838;DHT22;11585;51.450;-0.240;2023-04-06T13:24:32;13.30;99.90
22838;DHT22;11585;51.450;-0.240;2023-04-06T13:26:58;12.50;99.90
22838;DHT22;11585;51.450;-0.240;2023-04-06T13:29:25;13.30;99.90
22838;DHT22;11585;51.450;-0.240;2023-04-06T13:31:51;13.30;99.90
22838;DHT22;11585;51.450;-0.240;2023-04-06T13:34:17;13.40;99.90
22838;DHT22;11585;51.450;-0.240;2023-04-06T13:36:42;13.30;99.90
22838;DHT22;11585;51.450;-0.240;2023-04-06T13:39:08;13.40;99.90
22838;DHT22;11585;51.450;-0.240;2023-04-06T13:41:34;13.40;99.90
22838;DHT22;11585;51.450;-0.240;2023-04-06T13:44:00;13.40;99.90
22838;DHT22;11585;51.450;-0.240;2023-04-06T13:49:47;13.40;99.90
22838;DHT22;11585;51.450;-0.240;2023-04-06T13:52:13;13.40;99.90
22838;DHT22;11585;51.450;-0.240;2023-04-06T13:58:00;13.50;99.90
22838;DHT22;11585;51.450;-0.240;2023-04-06T14:03:32;13.50;99.90
22838;DHT22;11585;51.450;-0.240;2023-04-06T14:09:04;13.50;99.90
22838;DHT22;11585;51.450;-0.240;2023-04-06T14:11:31;13.50;99.90
22838;DHT22;11585;51.450;-0.240;2023-04-06T14:13:57;13.50;99.90
22838;DHT22;11585;51.450;-0.240;2023-04-06T14:16:23;13.50;99.90
22838;DHT22;11585;51.450;-0.240;2023-04-06T14:18:49;13.50;99.90
22838;DHT22;11585;51.450;-0.240;2023-04-06T14:21:16;13.50;99.90
22838;DHT22;11585;51.450;-0.240;2023-04-06T14:23:41;13.50;99.90
22838;DHT22;11585;51.450;-0.240;2023-04-06T14:26:27;13.50;99.90
22838;DHT22;11585;51.450;-0.240;2023-04-06T14:28:52;13.50;99.90
22838;DHT22;11585;51.450;-0.240;2023-04-06T14:31:18;13.50;99.90
22838;DHT22;11585;51.450;-0.240;2023-04-06T14:33:44;13.50;99.90
22838;DHT22;11585;51.450;-0.240;2023-04-06T14:36:32;13.50;99.90
22838;DHT22;11585;51.450;-0.240;2023-04-06T14:39:05;13.50;99.90
22838;DHT22;11585;51.450;-0.240;2023-04-06T14:41:32;13.40;99.90
22838;DHT22;11585;51.450;-0.240;2023-04-06T14:43:58;13.40;99.90
22838;DHT22;11585;51.450;-0.240;2023-04-06T14:46:26;13.30;99.90
22838;DHT22;11585;51.450;-0.240;2023-04-06T14:48:54;13.30;99.90
22838;DHT22;11585;51.450;-0.240;2023-04-06T14:51:21;13.30;99.90
22838;DHT22;11585;51.450;-0.240;2023-04-06T14:53:47;13.30;99.90
22838;DHT22;11585;51.450;-0.240;2023-04-06T14:56:34;13.30;99.90
22838;DHT22;11585;51.450;-0.240;2023-04-06T14:59:00;13.20;99.90
22838;DHT22;11585;51.450;-0.240;2023-04-06T15:01:27;13.20;99.90
22838;DHT22;11585;51.450;-0.240;2023-04-06T15:03:53;13.20;99.90
22838;DHT22;11585;51.450;-0.240;2023-04-06T15:09:24;13.10;99.90
22838;DHT22;11585;51.450;-0.240;2023-04-06T15:11:50;13.10;99.90
22838;DHT22;11585;51.450;-0.240;2023-04-06T15:14:16;13.10;99.90
22838;DHT22;11585;51.450;-0.240;2023-04-06T15:16:41;13.10;99.90
22838;DHT22;11585;51.450;-0.240;2023-04-06T15:19:07;13.10;99.90
22838;DHT22;11585;51.450;-0.240;2023-04-06T15:21:34;13.10;99.90
22838;DHT22;11585;51.450;-0.240;2023-04-06T15:24:00;13.10;99.90
22838;DHT22;11585;51.450;-0.240;2023-04-06T15:33:01;13.20;99.90
22838;DHT22;11585;51.450;-0.240;2023-04-06T15:35:51;13.20;99.90
22838;DHT22;11585;51.450;-0.240;2023-04-06T15:38:16;13.20;99.90
22838;DHT22;11585;51.450;-0.240;2023-04-06T15:40:46;13.20;99.90
22838;DHT22;11585;51.450;-0.240;2023-04-06T15:43:13;13.20;99.90
22838;DHT22;11585;51.450;-0.240;2023-04-06T15:49:01;13.20;99.90
22838;DHT22;11585;51.450;-0.240;2023-04-06T15:51:26;13.20;99.90
22838;DHT22;11585;51.450;-0.240;2023-04-06T15:53:54;13.30;99.90
22838;DHT22;11585;51.450;-0.240;2023-04-06T16:00:01;13.30;99.90
22838;DHT22;11585;51.450;-0.240;2023-04-06T16:02:27;13.30;99.90
22838;DHT22;11585;51.450;-0.240;2023-04-06T16:07:56;13.30;99.90
22838;DHT22;11585;51.450;-0.240;2023-04-06T16:10:22;13.30;99.90
22838;DHT22;11585;51.450;-0.240;2023-04-06T16:12:47;13.30;99.90
22838;DHT22;11585;51.450;-0.240;2023-04-06T16:15:38;13.30;99.90
22838;DHT22;11585;51.450;-0.240;2023-04-06T16:18:04;13.30;99.90
22838;DHT22;11585;51.450;-0.240;2023-04-06T16:20:30;13.20;99.90
22838;DHT22;11585;51.450;-0.240;2023-04-06T16:22:56;13.20;99.90
22838;DHT22;11585;51.450;-0.240;2023-04-06T16:28:44;13.20;99.90
22838;DHT22;11585;51.450;-0.240;2023-04-06T16:31:22;12.90;99.90
22838;DHT22;11585;51.450;-0.240;2023-04-06T16:33:52;13.20;99.90
22838;DHT22;11585;51.450;-0.240;2023-04-06T16:39:42;13.10;99.90
22838;DHT22;11585;51.450;-0.240;2023-04-06T16:42:08;13.10;99.90
22838;DHT22;11585;51.450;-0.240;2023-04-06T16:44:35;13.10;99.90
22838;DHT22;11585;51.450;-0.240;2023-04-06T16:47:00;13.00;99.90
22838;DHT22;11585;51.450;-0.240;2023-04-06T16:49:26;13.00;99.90
22838;DHT22;11585;51.450;-0.240;2023-04-06T16:51:52;13.00;99.90
22838;DHT22;11585;51.450;-0.240;2023-04-06T16:54:20;13.00;99.90
22838;DHT22;11585;51.450;-0.240;2023-04-06T16:56:45;12.90;99.90
22838;DHT22;11585;51.450;-0.240;2023-04-06T16:59:11;12.90;99.90
22838;DHT22;11585;51.450;-0.240;2023-04-06T17:01:37;12.90;99.90
22838;DHT22;11585;51.450;-0.240;2023-04-06T17:04:03;12.80;99.90
22838;DHT22;11585;51.450;-0.240;2023-04-06T17:06:50;12.80;99.90
22838;DHT22;11585;51.450;-0.240;2023-04-06T17:09:15;12.80;99.90
22838;DHT22;11585;51.450;-0.240;2023-04-06T17:11:41;12.70;99.90
22838;DHT22;11585;51.450;-0.240;2023-04-06T17:14:08;12.70;99.90
22838;DHT22;11585;51.450;-0.240;2023-04-06T17:19:56;12.70;99.90
22838;DHT22;11585;51.450;-0.240;2023-04-06T17:22:21;12.60;99.90
22838;DHT22;11585;51.450;-0.240;2023-04-06T17:24:48;12.60;99.90
22838;DHT22;11585;51.450;-0.240;2023-04-06T17:27:14;12.60;99.90
22838;DHT22;11585;51.450;-0.240;2023-04-06T17:29:40;12.60;99.90
22838;DHT22;11585;51.450;-0.240;2023-04-06T17:32:06;12.50;99.90
22838;DHT22;11585;51.450;-0.240;2023-04-06T17:37:36;12.50;99.90
22838;DHT22;11585;51.450;-0.240;2023-04-06T17:40:04;12.50;99.90
22838;DHT22;11585;51.450;-0.240;2023-04-06T17:42:30;12.50;99.90
22838;DHT22;11585;51.450;-0.240;2023-04-06T17:48:01;12.50;99.90
22838;DHT22;11585;51.450;-0.240;2023-04-06T17:50:27;12.40;99.90
22838;DHT22;11585;51.450;-0.240;2023-04-06T17:52:53;12.40;99.90
22838;DHT22;11585;51.450;-0.240;2023-04-06T17:58:41;12.40;99.90
22838;DHT22;11585;51.450;-0.240;2023-04-06T18:01:07;12.40;99.90
22838;DHT22;11585;51.450;-0.240;2023-04-06T18:03:33;12.40;99.90
22838;DHT22;11585;51.450;-0.240;2023-04-06T18:06:13;12.40;99.90
22838;DHT22;11585;51.450;-0.240;2023-04-06T18:08:41;12.40;99.90
22838;DHT22;11585;51.450;-0.240;2023-04-06T18:11:14;12.40;99.90
22838;DHT22;11585;51.450;-0.240;2023-04-06T18:13:40;12.40;99.90
22838;DHT22;11585;51.450;-0.240;2023-04-06T18:19:29;12.40;99.90